Time;durP1;ratioP1;P1;durP2;ratioP2;P2;SDS_P1;SDS_P2;PMS_P1;PMS_P2;Temp;Humidity;BMP_temperature;BMP_pressure;BME280_temperature;BME280_humidity;BME280_pressure;Samples;Min_cycle;Max_cycle;Signal;HPM_P1;HPM_P2
2022/03/30 00:02:08;;;;;;;23.90;13.07;;;4.70;99.90;;;;;;4992433;28;20054;-77
2022/03/30 00:04:36;;;;;;;26.83;14.93;;;4.60;99.90;;;;;;4992445;28;20041;-77
2022/03/30 00:07:03;;;;;;;25.10;14.43;;;4.60;99.90;;;;;;4992765;28;20046;-77
2022/03/30 00:09:29;;;;;;;27.35;15.05;;;4.60;99.90;;;;;;4993076;28;20468;-77
2022/03/30 00:11:56;;;;;;;24.38;13.65;;;4.70;99.90;;;;;;4992662;28;20042;-77
2022/03/30 00:14:22;;;;;;;26.05;14.55;;;4.50;99.90;;;;;;4984175;28;20050;-77
2022/03/30 00:16:48;;;;;;;26.13;15.23;;;4.50;99.90;;;;;;4991855;28;20041;-77
2022/03/30 00:19:14;;;;;;;26.42;13.93;;;4.50;99.90;;;;;;4975907;28;20477;-77
2022/03/30 00:21:40;;;;;;;26.42;14.40;;;4.50;99.90;;;;;;4992648;28;20130;-77
2022/03/30 00:24:06;;;;;;;26.25;14.98;;;4.50;99.90;;;;;;4976643;28;20455;-77
2022/03/30 00:26:31;;;;;;;25.00;15.13;;;4.50;99.90;;;;;;4976558;28;20042;-77
2022/03/30 00:28:58;;;;;;;26.13;14.90;;;4.60;99.90;;;;;;4992124;28;20517;-77
2022/03/30 00:31:23;;;;;;;25.17;14.63;;;4.40;99.90;;;;;;4976648;28;20394;-77
2022/03/30 00:33:51;;;;;;;23.60;13.65;;;4.40;99.90;;;;;;4959234;28;20045;-77
2022/03/30 00:36:17;;;;;;;22.20;13.88;;;4.40;99.90;;;;;;4992482;28;20058;-77
2022/03/30 00:38:43;;;;;;;24.92;14.50;;;4.50;99.90;;;;;;4976208;28;20045;-77
2022/03/30 00:41:09;;;;;;;25.58;14.27;;;4.60;99.90;;;;;;4960599;28;20053;-77
2022/03/30 00:43:35;;;;;;;26.50;15.02;;;4.50;99.90;;;;;;4976369;28;20042;-77
2022/03/30 00:46:00;;;;;;;24.35;13.73;;;4.50;99.90;;;;;;4992714;28;20405;-77
2022/03/30 00:48:26;;;;;;;26.75;15.25;;;4.50;99.90;;;;;;4991694;28;20042;-77
2022/03/30 00:50:52;;;;;;;23.02;14.77;;;4.50;99.90;;;;;;4992640;28;20042;-77
2022/03/30 00:53:18;;;;;;;25.90;15.38;;;4.50;99.90;;;;;;4986676;28;20046;-77
2022/03/30 00:55:44;;;;;;;28.25;15.40;;;4.50;99.90;;;;;;4961234;28;20050;-77
2022/03/30 00:58:10;;;;;;;26.92;15.10;;;4.50;99.90;;;;;;4976768;28;20042;-77
2022/03/30 01:00:35;;;;;;;22.27;13.70;;;4.50;99.90;;;;;;4960889;28;20410;-77
2022/03/30 01:03:01;;;;;;;23.88;13.95;;;4.50;99.90;;;;;;4975781;28;20050;-77
2022/03/30 01:05:27;;;;;;;25.52;13.68;;;4.60;99.90;;;;;;4960762;28;20038;-77
2022/03/30 01:07:57;;;;;;;25.92;13.55;;;4.60;99.90;;;;;;4972150;28;20051;-77
2022/03/30 01:10:24;;;;;;;24.13;13.95;;;4.60;99.90;;;;;;4996511;28;20042;-77
2022/03/30 01:12:52;;;;;;;23.65;13.63;;;4.60;99.90;;;;;;4996280;28;20053;-77
2022/03/30 01:15:18;;;;;;;25.50;14.73;;;4.60;99.90;;;;;;4996167;28;20049;-77
2022/03/30 01:17:44;;;;;;;23.67;14.10;;;4.60;99.90;;;;;;4994986;28;20045;-77
2022/03/30 01:20:11;;;;;;;24.90;14.07;;;4.60;99.90;;;;;;4996099;28;20509;-77
2022/03/30 01:22:38;;;;;;;26.27;14.88;;;4.40;99.90;;;;;;4995651;28;20038;-77
2022/03/30 01:25:04;;;;;;;25.98;14.38;;;4.50;99.90;;;;;;4980108;28;20038;-77
2022/03/30 01:27:30;;;;;;;21.73;13.75;;;4.40;99.90;;;;;;4995894;28;20569;-77
2022/03/30 01:32:42;;;;;;;22.42;13.80;;;4.40;99.90;;;;;;4981081;28;20194;-77
2022/03/30 01:35:10;;;;;;;21.73;13.50;;;4.30;99.90;;;;;;4995827;28;20406;-77
2022/03/30 01:37:36;;;;;;;23.77;13.95;;;4.30;99.90;;;;;;4979661;28;20043;-77
2022/03/30 01:40:05;;;;;;;23.75;13.43;;;4.30;99.90;;;;;;4995969;28;20505;-77
2022/03/30 01:42:31;;;;;;;23.60;13.88;;;4.30;99.90;;;;;;4987103;28;20077;-77
2022/03/30 01:44:57;;;;;;;21.52;13.35;;;4.30;99.90;;;;;;4959957;28;20046;-77
2022/03/30 01:47:23;;;;;;;20.10;12.52;;;4.30;99.90;;;;;;4959237;28;20050;-77
2022/03/30 01:49:49;;;;;;;21.95;12.80;;;4.30;99.90;;;;;;4975959;28;20050;-77
2022/03/30 01:52:18;;;;;;;22.25;13.27;;;4.30;99.90;;;;;;4959825;28;20051;-77
2022/03/30 01:54:44;;;;;;;22.60;13.45;;;4.30;99.90;;;;;;4960104;28;20039;-77
2022/03/30 01:57:14;;;;;;;19.35;12.88;;;4.30;99.90;;;;;;4975678;28;20109;-77
2022/03/30 01:59:41;;;;;;;27.27;15.27;;;4.30;99.90;;;;;;4959691;28;20042;-77
2022/03/30 02:02:08;;;;;;;25.95;13.63;;;4.30;99.90;;;;;;4959189;28;20130;-77
2022/03/30 02:04:35;;;;;;;23.75;13.77;;;4.20;99.90;;;;;;4975295;28;20122;-77
2022/03/30 02:07:02;;;;;;;20.23;13.32;;;4.20;99.90;;;;;;4975532;28;20038;-77
2022/03/30 02:09:28;;;;;;;23.08;13.20;;;4.20;99.90;;;;;;4959397;28;20078;-77
2022/03/30 02:11:54;;;;;;;24.80;14.00;;;4.10;99.90;;;;;;4975618;28;20501;-77
2022/03/30 02:14:21;;;;;;;27.42;15.77;;;4.10;99.90;;;;;;4983952;28;20042;-77
2022/03/30 02:16:46;;;;;;;23.17;13.20;;;4.10;99.90;;;;;;4994999;28;20041;-77
2022/03/30 02:19:13;;;;;;;23.98;14.40;;;4.10;99.90;;;;;;4993901;28;20042;-77
2022/03/30 02:21:38;;;;;;;29.35;16.73;;;4.10;99.90;;;;;;4978814;28;20046;-77
2022/03/30 02:24:05;;;;;;;29.92;17.40;;;4.50;99.90;;;;;;4978739;28;20389;-77
2022/03/30 02:26:30;;;;;;;26.83;15.82;;;4.10;99.90;;;;;;4978785;28;20049;-77
2022/03/30 02:28:56;;;;;;;32.50;18.50;;;4.20;99.90;;;;;;4978290;28;20079;-77
2022/03/30 02:31:22;;;;;;;30.17;17.83;;;4.10;99.90;;;;;;4973121;28;20039;-77
2022/03/30 02:33:49;;;;;;;29.90;16.75;;;4.10;99.90;;;;;;4974129;28;20053;-77
2022/03/30 02:36:15;;;;;;;35.30;19.58;;;4.10;99.90;;;;;;4975075;28;20055;-77
2022/03/30 02:38:42;;;;;;;32.03;18.38;;;4.20;99.90;;;;;;4975241;28;20363;-77
2022/03/30 02:41:09;;;;;;;33.58;18.33;;;4.10;99.90;;;;;;4959401;28;20078;-77
2022/03/30 02:43:35;;;;;;;28.92;16.45;;;4.10;99.90;;;;;;4974846;28;20049;-77
2022/03/30 02:46:01;;;;;;;29.52;18.60;;;4.20;99.90;;;;;;4975100;28;20050;-77
2022/03/30 02:48:31;;;;;;;32.42;18.85;;;4.20;99.90;;;;;;4973955;28;20565;-77
2022/03/30 02:50:58;;;;;;;29.27;17.73;;;4.20;99.90;;;;;;4959286;28;20050;-77
2022/03/30 02:53:25;;;;;;;28.23;17.95;;;4.30;99.90;;;;;;4974650;28;20050;-77
2022/03/30 02:55:51;;;;;;;28.98;17.55;;;4.20;99.90;;;;;;4958921;28;20047;-77
2022/03/30 02:58:19;;;;;;;31.83;18.70;;;4.40;99.90;;;;;;4974868;28;20078;-77
2022/03/30 03:00:45;;;;;;;30.25;17.92;;;4.30;99.90;;;;;;4975019;28;20441;-77
2022/03/30 03:03:11;;;;;;;34.28;19.23;;;4.20;99.90;;;;;;4957774;28;20130;-77
2022/03/30 03:05:38;;;;;;;31.35;18.45;;;4.20;99.90;;;;;;4974716;28;20089;-77
2022/03/30 03:08:07;;;;;;;30.45;18.48;;;4.20;99.90;;;;;;4974316;28;20193;-77
2022/03/30 03:10:38;;;;;;;33.10;19.05;;;4.30;99.90;;;;;;4974594;28;20078;-77
2022/03/30 03:13:05;;;;;;;33.97;19.40;;;4.30;99.90;;;;;;4974217;28;20055;-77
2022/03/30 03:15:34;;;;;;;33.75;18.30;;;4.30;99.90;;;;;;4974185;28;20398;-77
2022/03/30 03:18:26;;;;;;;28.70;17.17;;;4.30;99.90;;;;;;4973371;28;20043;-77
2022/03/30 03:20:51;;;;;;;29.45;17.67;;;4.40;99.90;;;;;;4974248;28;20137;-77
2022/03/30 03:23:18;;;;;;;30.08;18.02;;;4.60;99.90;;;;;;4974075;28;20107;-77
2022/03/30 03:25:44;;;;;;;31.23;19.05;;;4.40;99.90;;;;;;4958154;28;20050;-77
2022/03/30 03:28:12;;;;;;;31.10;18.42;;;4.50;99.90;;;;;;4974024;28;20155;-77
2022/03/30 03:30:38;;;;;;;30.98;18.02;;;4.50;99.90;;;;;;4974404;28;20407;-77
2022/03/30 03:33:06;;;;;;;30.92;18.30;;;4.50;99.90;;;;;;4973134;28;20043;-77
2022/03/30 03:35:32;;;;;;;34.70;18.15;;;4.50;99.90;;;;;;4973991;28;20047;-77
2022/03/30 03:37:59;;;;;;;30.42;18.05;;;4.50;99.90;;;;;;4973787;28;20054;-77
2022/03/30 03:40:37;;;;;;;34.97;19.02;;;4.60;99.90;;;;;;4957987;28;20072;-77
2022/03/30 03:43:04;;;;;;;30.75;18.65;;;4.60;99.90;;;;;;4973689;28;20043;-77
2022/03/30 03:45:30;;;;;;;30.77;17.75;;;4.60;99.90;;;;;;4973943;28;20050;-77
2022/03/30 03:47:56;;;;;;;31.25;18.13;;;4.60;99.90;;;;;;4957028;28;20442;-77
2022/03/30 03:50:22;;;;;;;30.80;17.95;;;4.60;99.90;;;;;;4974076;28;20512;-77
2022/03/30 03:52:49;;;;;;;34.35;19.58;;;4.60;99.90;;;;;;4957255;28;20051;-77
2022/03/30 03:55:14;;;;;;;31.92;19.23;;;4.70;99.90;;;;;;4958007;28;20035;-77
2022/03/30 03:57:41;;;;;;;34.22;18.27;;;4.60;99.90;;;;;;4973430;28;20043;-77
2022/03/30 04:00:09;;;;;;;29.67;18.52;;;4.70;99.90;;;;;;4973870;28;20544;-77
2022/03/30 04:02:38;;;;;;;34.47;19.38;;;4.70;99.90;;;;;;4956723;28;20086;-77
2022/03/30 04:05:05;;;;;;;33.28;18.95;;;4.70;99.90;;;;;;4973600;28;20129;-77
2022/03/30 04:07:32;;;;;;;32.03;18.27;;;4.70;99.90;;;;;;4973347;28;20051;-77
2022/03/30 04:09:59;;;;;;;30.30;18.83;;;4.80;99.90;;;;;;4973506;28;20057;-77
2022/03/30 04:12:25;;;;;;;32.45;18.63;;;4.70;99.90;;;;;;4973120;28;20055;-77
2022/03/30 04:14:50;;;;;;;33.33;19.13;;;4.70;99.90;;;;;;4973410;28;20061;-77
2022/03/30 04:17:16;;;;;;;34.22;18.67;;;4.70;99.90;;;;;;4972586;28;20057;-77
2022/03/30 04:19:42;;;;;;;32.42;18.33;;;4.70;99.90;;;;;;4957287;28;20046;-77
2022/03/30 04:22:07;;;;;;;36.28;18.83;;;4.80;99.90;;;;;;4957132;28;20047;-77
2022/03/30 04:24:33;;;;;;;32.10;19.15;;;4.80;99.90;;;;;;4957223;28;20136;-77
2022/03/30 04:26:59;;;;;;;37.42;18.92;;;4.80;99.90;;;;;;4956283;28;20097;-77
2022/03/30 04:29:24;;;;;;;37.50;20.05;;;4.80;99.90;;;;;;4973089;28;20042;-77
2022/03/30 04:31:50;;;;;;;33.35;20.02;;;4.80;99.90;;;;;;4973506;28;20379;-77
2022/03/30 04:34:16;;;;;;;33.38;19.98;;;4.80;99.90;;;;;;4972118;28;20043;-76
2022/03/30 04:36:41;;;;;;;36.00;20.40;;;4.80;99.90;;;;;;4956991;28;20094;-76
2022/03/30 04:39:07;;;;;;;34.22;20.70;;;4.80;99.90;;;;;;4972952;28;20461;-76
2022/03/30 04:41:33;;;;;;;34.75;20.85;;;4.80;99.90;;;;;;4957408;28;20402;-76
2022/03/30 04:43:58;;;;;;;34.08;20.13;;;4.80;99.90;;;;;;4956920;28;20046;-77
2022/03/30 04:46:24;;;;;;;37.47;21.35;;;4.80;99.90;;;;;;4976273;28;20046;-77
2022/03/30 04:48:50;;;;;;;35.17;20.58;;;4.90;99.90;;;;;;4991329;28;20112;-78
2022/03/30 04:51:16;;;;;;;39.08;21.25;;;4.90;99.90;;;;;;4991931;28;20046;-78
2022/03/30 04:53:41;;;;;;;38.75;22.02;;;4.90;99.90;;;;;;4975484;28;20417;-78
2022/03/30 04:56:07;;;;;;;39.83;21.90;;;4.90;99.90;;;;;;4992454;28;20042;-78
2022/03/30 04:58:33;;;;;;;37.38;21.73;;;4.90;99.90;;;;;;4992404;28;20500;-78
2022/03/30 05:00:59;;;;;;;39.42;21.95;;;4.90;99.90;;;;;;4976241;28;20053;-78
2022/03/30 05:03:24;;;;;;;38.50;23.15;;;4.90;99.90;;;;;;4975128;28;20081;-78
2022/03/30 05:05:50;;;;;;;36.88;21.98;;;5.00;99.90;;;;;;4976182;28;20050;-78
2022/03/30 05:08:17;;;;;;;39.05;22.30;;;5.00;99.90;;;;;;4991529;28;20482;-78
2022/03/30 05:10:47;;;;;;;41.60;23.23;;;5.10;99.90;;;;;;4992309;28;20400;-78
2022/03/30 05:13:14;;;;;;;40.08;23.25;;;5.00;99.90;;;;;;4991911;28;20042;-78
2022/03/30 05:15:40;;;;;;;39.45;23.63;;;5.00;99.90;;;;;;4989951;28;20095;-77
2022/03/30 05:18:06;;;;;;;41.08;23.90;;;5.00;99.90;;;;;;4990759;28;20045;-77
2022/03/30 05:20:33;;;;;;;41.38;23.17;;;5.10;99.90;;;;;;4992244;28;20084;-77
2022/03/30 05:22:58;;;;;;;40.38;22.00;;;5.00;99.90;;;;;;4975755;28;20054;-77
2022/03/30 05:25:24;;;;;;;39.08;21.88;;;5.00;99.90;;;;;;4975574;28;20088;-77
2022/03/30 05:27:50;;;;;;;43.40;22.42;;;5.00;99.90;;;;;;4975630;28;20050;-77
2022/03/30 05:30:16;;;;;;;38.85;21.23;;;5.00;99.90;;;;;;4975092;28;20045;-76
2022/03/30 05:32:44;;;;;;;38.92;21.80;;;5.10;99.90;;;;;;4990256;28;20105;-76
2022/03/30 05:35:11;;;;;;;39.28;21.70;;;5.00;99.90;;;;;;4990937;28;20050;-76
2022/03/30 05:37:36;;;;;;;39.47;20.10;;;5.00;99.90;;;;;;4975096;28;20401;-76
2022/03/30 05:40:04;;;;;;;34.97;20.23;;;5.10;99.90;;;;;;4991092;28;20046;-76
2022/03/30 05:42:30;;;;;;;36.38;19.75;;;5.10;99.90;;;;;;4978485;28;20133;-77
2022/03/30 05:44:56;;;;;;;34.65;18.33;;;5.10;99.90;;;;;;4995518;28;20144;-76
2022/03/30 05:47:21;;;;;;;31.30;17.60;;;5.10;99.90;;;;;;4978083;28;20128;-76
2022/03/30 05:49:47;;;;;;;28.60;16.73;;;5.10;99.90;;;;;;4978242;28;20121;-76
2022/03/30 05:52:13;;;;;;;21.63;12.48;;;5.10;99.90;;;;;;4994491;28;20050;-76
2022/03/30 05:54:39;;;;;;;24.00;12.52;;;5.10;99.90;;;;;;4975966;28;20459;-76
2022/03/30 05:57:05;;;;;;;22.38;11.85;;;5.20;99.90;;;;;;4959649;28;20054;-76
2022/03/30 05:59:40;;;;;;;17.55;10.30;;;5.20;99.90;;;;;;4975438;28;20038;-76
2022/03/30 06:02:08;;;;;;;13.88;8.90;;;5.20;99.90;;;;;;4975293;28;20042;-77
2022/03/30 06:04:34;;;;;;;14.15;8.07;;;5.20;99.90;;;;;;4959653;28;20097;-78
2022/03/30 06:07:00;;;;;;;11.13;5.20;;;5.20;99.90;;;;;;4975917;28;20082;-80
2022/03/30 06:09:27;;;;;;;10.55;4.60;;;5.20;99.90;;;;;;4975609;28;20457;-77
2022/03/30 06:11:53;;;;;;;7.40;4.28;;;5.20;99.90;;;;;;4959827;28;20043;-76
2022/03/30 06:14:20;;;;;;;6.05;3.05;;;5.20;99.90;;;;;;4975521;28;20105;-76
2022/03/30 06:16:47;;;;;;;10.45;6.95;;;5.20;99.90;;;;;;4968586;28;20121;-78
2022/03/30 06:19:14;;;;;;;6.40;2.70;;;5.20;99.90;;;;;;4974428;28;20417;-76
2022/03/30 06:21:42;;;;;;;5.55;2.70;;;5.20;99.90;;;;;;4977690;28;20058;-76
2022/03/30 06:24:10;;;;;;;15.43;10.93;;;5.20;99.90;;;;;;4977916;28;20046;-76
2022/03/30 06:26:40;;;;;;;14.32;8.75;;;5.20;99.90;;;;;;4991159;28;20046;-76
2022/03/30 06:29:06;;;;;;;7.93;5.30;;;5.30;99.90;;;;;;4993532;28;20053;-76
2022/03/30 06:31:32;;;;;;;13.20;8.75;;;5.20;99.90;;;;;;4961603;28;20041;-76
2022/03/30 06:33:58;;;;;;;8.02;5.68;;;5.20;99.90;;;;;;4975973;28;20050;-76
2022/03/30 06:36:24;;;;;;;7.25;4.28;;;5.20;99.90;;;;;;4992956;28;20379;-76
2022/03/30 06:38:50;;;;;;;6.43;5.20;;;5.20;99.90;;;;;;4976513;28;20038;-76
2022/03/30 06:41:17;;;;;;;5.60;2.72;;;5.20;99.90;;;;;;4995110;28;20042;-76
2022/03/30 06:43:46;;;;;;;3.90;2.05;;;5.10;99.90;;;;;;4977969;28;20112;-76
2022/03/30 06:46:13;;;;;;;4.90;3.22;;;5.20;99.90;;;;;;4994512;28;20054;-76
2022/03/30 06:48:40;;;;;;;8.23;7.43;;;5.10;99.90;;;;;;4978430;28;20054;-80
2022/03/30 06:51:06;;;;;;;4.30;2.35;;;5.20;99.90;;;;;;4978865;28;20405;-77
2022/03/30 06:53:32;;;;;;;3.78;1.88;;;5.20;99.90;;;;;;4994058;28;20043;-76
2022/03/30 06:55:58;;;;;;;4.88;3.05;;;5.10;99.90;;;;;;4978109;28;20038;-76
2022/03/30 06:58:24;;;;;;;5.15;2.42;;;5.20;99.90;;;;;;4977880;28;20046;-76
2022/03/30 07:00:50;;;;;;;4.25;2.05;;;5.30;99.90;;;;;;4977970;28;20034;-76
2022/03/30 07:03:16;;;;;;;3.92;2.00;;;5.40;99.90;;;;;;4976896;28;20047;-76
2022/03/30 07:05:42;;;;;;;4.15;1.80;;;5.50;99.90;;;;;;4994231;28;20039;-76
2022/03/30 07:10:52;;;;;;;5.53;2.90;;;5.60;99.90;;;;;;4994105;28;20049;-76
2022/03/30 07:13:19;;;;;;;4.70;2.15;;;5.60;99.90;;;;;;4993353;28;20042;-76
2022/03/30 07:15:45;;;;;;;5.40;2.38;;;5.70;99.90;;;;;;4958888;28;20082;-77
2022/03/30 07:18:13;;;;;;;3.80;2.05;;;5.80;99.90;;;;;;4973655;28;20081;-78
2022/03/30 07:20:39;;;;;;;5.32;2.40;;;5.80;99.90;;;;;;4975805;28;20043;-78
2022/03/30 07:23:05;;;;;;;4.55;2.30;;;6.00;99.90;;;;;;4958058;28;20053;-77
2022/03/30 07:25:31;;;;;;;4.75;2.58;;;6.10;99.90;;;;;;4958366;28;20039;-77
2022/03/30 07:27:59;;;;;;;4.85;2.75;;;6.20;99.90;;;;;;4957991;28;20054;-77
2022/03/30 07:30:25;;;;;;;4.88;2.85;;;6.40;99.90;;;;;;4974183;28;20065;-78
2022/03/30 07:32:53;;;;;;;5.88;3.15;;;6.60;99.90;;;;;;4957143;28;20101;-78
2022/03/30 07:35:25;;;;;;;5.75;3.05;;;6.40;99.90;;;;;;4957864;28;20046;-78
2022/03/30 07:37:51;;;;;;;5.50;3.50;;;6.30;99.90;;;;;;4957760;28;20050;-78
2022/03/30 07:40:24;;;;;;;6.25;3.20;;;6.40;99.90;;;;;;4974303;28;20133;-78
2022/03/30 07:42:52;;;;;;;5.00;2.72;;;6.80;99.90;;;;;;4974039;28;20491;-78
2022/03/30 07:45:19;;;;;;;4.97;2.80;;;6.40;99.90;;;;;;4974247;28;20402;-78
2022/03/30 07:47:45;;;;;;;4.78;2.50;;;6.40;99.90;;;;;;4973123;28;20513;-78
2022/03/30 07:50:12;;;;;;;4.18;1.90;;;6.40;99.90;;;;;;4973872;28;20049;-78
2022/03/30 07:52:39;;;;;;;4.70;1.85;;;6.70;99.90;;;;;;4973491;28;20035;-78
2022/03/30 07:55:07;;;;;;;4.82;2.15;;;6.20;99.90;;;;;;4957700;28;20130;-78
2022/03/30 07:57:36;;;;;;;4.70;2.40;;;6.20;99.90;;;;;;4973797;28;20486;-77
2022/03/30 08:00:06;;;;;;;4.18;2.08;;;6.20;99.90;;;;;;4942045;28;20042;-79
2022/03/30 08:02:31;;;;;;;19.50;11.45;;;6.20;99.90;;;;;;4956394;28;20042;-79
2022/03/30 08:04:57;;;;;;;169.63;89.22;;;6.20;99.90;;;;;;4957919;28;20043;-80
2022/03/30 08:07:26;;;;;;;82.75;42.83;;;6.20;99.90;;;;;;4969072;28;20548;-80
2022/03/30 08:09:52;;;;;;;8.93;5.28;;;6.10;99.90;;;;;;4974529;28;20065;-81
2022/03/30 08:12:19;;;;;;;9.98;4.75;;;6.20;99.90;;;;;;4972668;28;20039;-81
2022/03/30 08:14:45;;;;;;;7.13;3.95;;;6.30;99.90;;;;;;4957765;28;20101;-81
2022/03/30 08:17:11;;;;;;;6.47;2.25;;;6.30;99.90;;;;;;4965766;28;20049;-81
2022/03/30 08:19:38;;;;;;;4.88;2.10;;;6.30;99.90;;;;;;4976188;28;20046;-81
2022/03/30 08:24:49;;;;;;;5.63;1.77;;;6.50;99.90;;;;;;4992402;28;20105;-78
2022/03/30 08:27:19;;;;;;;3.88;1.40;;;6.40;99.90;;;;;;4976575;28;20050;-78
2022/03/30 08:29:46;;;;;;;5.10;2.13;;;6.50;99.90;;;;;;4976441;28;20053;-78
2022/03/30 08:32:13;;;;;;;5.80;2.42;;;6.50;99.90;;;;;;4991756;28;20165;-82
2022/03/30 08:34:39;;;;;;;17.48;13.93;;;6.70;99.90;;;;;;4992233;28;20056;-81
2022/03/30 08:37:06;;;;;;;3.85;1.70;;;6.70;99.90;;;;;;4992118;28;20061;-82
2022/03/30 08:39:33;;;;;;;5.10;2.22;;;6.80;99.90;;;;;;4992550;28;20057;-82
2022/03/30 08:41:59;;;;;;;5.30;1.65;;;6.90;99.90;;;;;;4992293;28;20069;-81
2022/03/30 08:44:25;;;;;;;5.80;1.70;;;6.70;99.90;;;;;;4992191;28;20046;-81
2022/03/30 08:46:52;;;;;;;4.70;1.70;;;6.90;99.90;;;;;;4992469;28;20048;-81
2022/03/30 08:49:18;;;;;;;5.90;2.40;;;7.00;99.90;;;;;;4991672;28;20046;-81
2022/03/30 08:51:47;;;;;;;3.63;1.50;;;6.90;99.90;;;;;;4992352;28;20045;-81
2022/03/30 08:54:14;;;;;;;5.30;1.70;;;7.00;99.90;;;;;;4992164;28;20042;-80
2022/03/30 08:56:41;;;;;;;5.00;1.40;;;7.00;99.90;;;;;;4992586;28;20398;-81
2022/03/30 08:59:10;;;;;;;5.22;1.50;;;6.90;99.90;;;;;;4992132;28;20042;-80
2022/03/30 09:01:39;;;;;;;4.93;1.30;;;7.00;99.90;;;;;;4992396;28;20043;-79
2022/03/30 09:04:12;;;;;;;3.72;1.30;;;7.10;99.90;;;;;;4991616;28;20545;-79
2022/03/30 09:06:44;;;;;;;3.45;1.20;;;7.10;99.90;;;;;;4992300;28;20041;-79
2022/03/30 09:09:11;;;;;;;4.30;1.40;;;7.30;99.90;;;;;;4992004;28;20170;-79
2022/03/30 09:11:40;;;;;;;4.88;1.30;;;7.30;99.90;;;;;;4992330;28;20449;-79
2022/03/30 09:14:09;;;;;;;4.75;1.45;;;7.00;99.90;;;;;;4978102;28;20038;-79
2022/03/30 09:16:39;;;;;;;5.18;1.70;;;7.60;99.90;;;;;;4964444;28;20490;-79
2022/03/30 09:19:08;;;;;;;7.35;1.65;;;7.30;99.90;;;;;;4995189;28;20516;-80
2022/03/30 09:21:51;;;;;;;4.00;1.40;;;7.10;99.90;;;;;;4980121;28;20046;-80
2022/03/30 09:24:20;;;;;;;4.15;1.38;;;7.30;99.90;;;;;;4995895;28;20077;-80
2022/03/30 09:26:47;;;;;;;6.18;1.40;;;7.10;99.90;;;;;;4995846;28;20045;-79
2022/03/30 09:29:14;;;;;;;5.95;1.70;;;7.20;99.90;;;;;;4995682;28;20069;-79
2022/03/30 09:31:41;;;;;;;9.48;4.65;;;7.10;99.90;;;;;;4980772;28;20076;-79
2022/03/30 09:34:09;;;;;;;8.75;2.78;;;7.20;99.90;;;;;;4975383;28;20498;-79
2022/03/30 09:36:38;;;;;;;12.82;8.88;;;7.30;99.90;;;;;;4960037;28;20059;-79
2022/03/30 09:39:05;;;;;;;9.32;6.22;;;7.50;99.90;;;;;;4976249;28;20039;-79
2022/03/30 09:41:52;;;;;;;5.10;1.88;;;7.60;99.90;;;;;;4944277;28;20041;-79
2022/03/30 09:44:19;;;;;;;5.90;1.95;;;7.40;99.90;;;;;;4975942;28;20089;-79
2022/03/30 09:47:11;;;;;;;8.07;3.53;;;7.70;99.90;;;;;;4976379;28;20499;-79
2022/03/30 09:49:49;;;;;;;8.02;2.50;;;7.80;99.90;;;;;;4975046;28;20051;-79
2022/03/30 09:52:16;;;;;;;10.23;4.10;;;7.70;99.90;;;;;;4975856;28;20053;-79
2022/03/30 09:54:49;;;;;;;7.50;3.83;;;7.70;97.40;;;;;;4976272;28;20078;-79
2022/03/30 09:57:28;;;;;;;7.38;3.03;;;7.60;98.10;;;;;;4959578;28;20078;-79
2022/03/30 10:00:00;;;;;;;7.28;3.08;;;7.70;98.20;;;;;;4989862;28;20042;-79
2022/03/30 10:02:27;;;;;;;5.25;1.65;;;7.80;97.40;;;;;;4992646;28;20085;-79
2022/03/30 10:04:53;;;;;;;7.22;2.30;;;7.80;97.60;;;;;;4975301;28;20045;-79
2022/03/30 10:07:21;;;;;;;6.35;1.98;;;8.00;99.20;;;;;;4971587;28;20038;-79
2022/03/30 10:09:48;;;;;;;7.00;1.65;;;8.10;99.00;;;;;;4994664;28;20039;-79
2022/03/30 10:12:17;;;;;;;5.63;2.10;;;7.90;98.60;;;;;;4994865;28;20049;-79
2022/03/30 10:14:44;;;;;;;6.35;1.95;;;8.00;99.30;;;;;;4963250;28;20042;-79
2022/03/30 10:17:10;;;;;;;8.25;4.05;;;8.00;98.00;;;;;;4994344;28;20042;-79
2022/03/30 10:19:37;;;;;;;6.18;2.38;;;7.90;99.40;;;;;;4994679;28;20034;-79
2022/03/30 10:22:16;;;;;;;5.43;2.30;;;8.10;98.80;;;;;;4979089;28;20485;-79
2022/03/30 10:25:14;;;;;;;6.10;2.10;;;8.10;98.20;;;;;;4977504;28;20050;-79
2022/03/30 10:27:53;;;;;;;5.43;1.80;;;8.20;99.50;;;;;;4970874;28;20077;-79
2022/03/30 10:30:30;;;;;;;16.92;11.10;;;7.90;98.10;;;;;;4978756;28;20052;-79
2022/03/30 10:33:01;;;;;;;10.10;6.38;;;8.00;99.40;;;;;;4975986;28;20042;-79
2022/03/30 10:35:42;;;;;;;7.28;3.88;;;7.90;98.80;;;;;;4976647;28;20074;-79
2022/03/30 10:38:08;;;;;;;7.43;2.80;;;8.00;99.90;;;;;;4982026;28;20050;-79
2022/03/30 10:40:35;;;;;;;5.30;2.10;;;8.10;99.90;;;;;;4989629;28;20038;-79
2022/03/30 10:43:10;;;;;;;5.20;1.73;;;8.10;99.00;;;;;;4986430;28;20104;-79
2022/03/30 10:45:42;;;;;;;8.68;3.85;;;8.20;97.50;;;;;;4975519;28;20129;-79
2022/03/30 10:48:12;;;;;;;4.88;1.45;;;8.30;98.20;;;;;;4984934;28;20053;-79
2022/03/30 10:50:43;;;;;;;5.55;1.70;;;8.40;97.70;;;;;;4978131;28;20133;-79
2022/03/30 10:53:30;;;;;;;6.00;3.22;;;8.40;97.40;;;;;;4978075;28;20046;-79
2022/03/30 10:56:24;;;;;;;8.73;4.68;;;8.50;96.10;;;;;;4975385;28;20038;-79
2022/03/30 10:58:53;;;;;;;7.28;2.50;;;8.30;93.50;;;;;;4992592;28;20054;-78
2022/03/30 11:01:26;;;;;;;4.57;1.48;;;8.60;95.50;;;;;;4994460;28;20565;-78
2022/03/30 11:03:56;;;;;;;6.05;1.85;;;8.60;95.10;;;;;;4976997;28;20050;-78
2022/03/30 11:06:22;;;;;;;15.55;10.32;;;8.60;94.90;;;;;;4994475;28;20490;-79
2022/03/30 11:08:55;;;;;;;4.78;1.60;;;8.80;95.60;;;;;;4976555;28;20100;-78
2022/03/30 11:11:50;;;;;;;5.57;1.65;;;8.70;95.00;;;;;;4993685;28;20092;-78
2022/03/30 11:14:37;;;;;;;13.13;5.82;;;8.70;93.30;;;;;;4992937;28;20085;-78
2022/03/30 11:17:10;;;;;;;74.85;39.45;;;8.40;95.10;;;;;;4991308;28;20042;-78
2022/03/30 11:19:48;;;;;;;9.00;6.40;;;8.50;95.80;;;;;;4991844;28;20045;-78
2022/03/30 11:22:15;;;;;;;6.95;1.88;;;8.40;95.00;;;;;;4993428;28;20042;-78
2022/03/30 11:24:45;;;;;;;6.22;3.30;;;8.30;97.00;;;;;;4994065;28;20042;-78
2022/03/30 11:27:11;;;;;;;3.88;1.50;;;8.50;98.00;;;;;;4993505;28;20074;-78
2022/03/30 11:29:45;;;;;;;5.22;2.13;;;8.20;96.50;;;;;;4994014;28;20575;-78
2022/03/30 11:32:22;;;;;;;7.43;4.35;;;8.40;97.30;;;;;;4990291;28;20042;-78
2022/03/30 11:35:12;;;;;;;8.32;5.80;;;8.40;98.00;;;;;;4986546;28;20050;-78
2022/03/30 11:37:39;;;;;;;5.90;3.75;;;8.50;96.70;;;;;;4982810;28;20053;-80
2022/03/30 11:40:13;;;;;;;6.20;4.03;;;8.40;96.90;;;;;;4992427;28;20046;-80
2022/03/30 11:42:48;;;;;;;4.30;2.30;;;8.30;97.00;;;;;;4979484;28;20061;-80
2022/03/30 11:45:19;;;;;;;5.18;1.65;;;8.20;96.70;;;;;;4979931;28;20043;-80
2022/03/30 11:48:17;;;;;;;4.82;1.60;;;8.20;96.20;;;;;;4972809;28;20042;-80
2022/03/30 11:50:45;;;;;;;5.28;1.60;;;8.30;96.20;;;;;;4972672;28;20133;-80
2022/03/30 11:53:18;;;;;;;4.53;1.70;;;8.10;96.30;;;;;;4969891;28;20108;-80
2022/03/30 11:55:53;;;;;;;5.68;1.85;;;8.10;96.10;;;;;;4970567;28;20092;-80
2022/03/30 11:58:29;;;;;;;4.63;2.00;;;8.10;95.80;;;;;;4974863;28;20129;-79
2022/03/30 12:01:00;;;;;;;4.28;1.27;;;8.20;93.50;;;;;;4974293;28;20034;-79
2022/03/30 12:03:26;;;;;;;4.00;1.50;;;8.10;91.80;;;;;;4967542;28;20087;-79
2022/03/30 12:05:58;;;;;;;4.97;1.40;;;8.20;91.30;;;;;;4955100;28;20078;-79
2022/03/30 12:08:25;;;;;;;5.93;1.27;;;8.30;91.30;;;;;;4973709;28;20614;-79
2022/03/30 12:10:56;;;;;;;5.93;1.40;;;8.40;91.60;;;;;;4957753;28;20046;-79
2022/03/30 12:13:26;;;;;;;4.43;1.20;;;8.50;91.30;;;;;;4942204;28;20482;-79
2022/03/30 12:16:10;;;;;;;4.70;1.20;;;8.60;88.30;;;;;;4973564;28;20042;-79
2022/03/30 12:18:46;;;;;;;4.60;1.30;;;8.70;90.50;;;;;;4973777;28;20399;-80
2022/03/30 12:21:23;;;;;;;8.45;2.35;;;8.90;90.60;;;;;;4973458;28;20051;-80
2022/03/30 12:24:00;;;;;;;2.95;0.90;;;9.10;90.00;;;;;;4973444;28;20724;-80
2022/03/30 12:26:26;;;;;;;6.13;1.27;;;9.00;81.10;;;;;;4973430;28;20050;-80
2022/03/30 12:29:14;;;;;;;4.38;1.13;;;8.80;82.90;;;;;;4978665;28;20121;-80
2022/03/30 12:31:50;;;;;;;4.93;1.33;;;8.80;85.20;;;;;;4992660;28;20093;-80
2022/03/30 12:34:17;;;;;;;4.75;1.30;;;8.90;87.80;;;;;;4991630;28;20046;-79
2022/03/30 12:36:46;;;;;;;4.20;1.10;;;9.00;89.50;;;;;;4981889;28;20054;-80
2022/03/30 12:39:27;;;;;;;4.13;1.40;;;8.90;85.10;;;;;;4961317;28;21107;-79
2022/03/30 12:42:01;;;;;;;5.68;1.35;;;8.80;85.10;;;;;;4992360;28;20085;-80
2022/03/30 12:44:29;;;;;;;5.40;1.60;;;8.90;88.30;;;;;;4985048;28;20038;-79
2022/03/30 12:46:58;;;;;;;4.10;1.27;;;8.90;88.40;;;;;;4969456;28;20050;-79
2022/03/30 12:49:42;;;;;;;3.70;1.27;;;8.70;87.00;;;;;;4953453;28;20047;-81
2022/03/30 12:52:15;;;;;;;5.68;1.45;;;8.90;84.20;;;;;;4971579;28;20046;-80
2022/03/30 12:54:43;;;;;;;4.72;1.20;;;9.10;84.80;;;;;;4975097;28;20039;-80
2022/03/30 12:57:10;;;;;;;4.03;1.30;;;9.10;79.10;;;;;;4982860;28;20499;-80
2022/03/30 12:59:41;;;;;;;5.75;1.27;;;9.00;75.20;;;;;;4981135;28;20041;-80
2022/03/30 13:02:21;;;;;;;4.70;1.33;;;9.00;79.00;;;;;;4978653;28;20043;-80